Diablo Blanco — ZGEF9 — position and weather

sailwx.info

Track history (hours):
 
Tides and Currents Weather Stations Pressure Air Temp Water Temp Dewpoint Dewpoint Depression Visibility Wind Speed Wind Dir Waves Ship Positions

Diablo Blanco

Last reported at 2017-Dec-22 17:38 UTC. Time now 2018-Jan-22 14:15 UTC.
Position N 25°40' W 080°06'.
Warning: this ship's position is 30 days out of date.

Length 20 m.

Type: Pleasure craft. MMSI: 319070800.

Date/timePositionNaut miles runAvg speedWind from/ knotsBaromVisibWave heightAir tempDewpointWater temp
2017-Dec-22 17:38N 25°40' W 080°06'323.4
2017-Dec-22 17:30N 25°43' W 080°06'1122.3
2017-Dec-22 17:00N 25°54' W 080°04'1121.8
2017-Dec-22 16:30N 26°05' W 080°03'3721.0
2017-Dec-22 14:45N 26°41' W 079°59'520.5
2017-Dec-22 14:30N 26°46' W 080°00'  
2017-Dec-18 22:46N 34°43' W 076°40'0 0.0
2017-Dec-18 22:28N 34°43' W 076°40'0 0.0
2017-Dec-18 21:58N 34°43' W 076°40'0 0.0
2017-Dec-18 21:28N 34°43' W 076°40'0 0.0
2017-Dec-18 20:58N 34°43' W 076°40'0 0.0
2017-Dec-18 20:28N 34°43' W 076°40'0 0.0
2017-Dec-18 19:58N 34°43' W 076°40'0 0.0
2017-Dec-18 19:28N 34°43' W 076°40'1 1.7
2017-Dec-18 19:00N 34°43' W 076°41'3 7.0
2017-Dec-18 18:30N 34°46' W 076°41'119 4.2
2017-Dec-17 14:13N 36°44' W 076°16'2 6.8
2017-Dec-17 13:54N 36°46' W 076°18'2 5.9
2017-Dec-17 13:30N 36°48' W 076°18'  
Track history (hours):
 
Tides and Currents Weather Stations Pressure Air Temp Water Temp Dewpoint Dewpoint Depression Visibility Wind Speed Wind Dir Waves Ship Positions

Diablo Blanco

Last reported at 2017-Dec-22 17:38 UTC. Time now 2018-Jan-22 14:15 UTC.
Position N 25°40' W 080°06'.
Warning: this ship's position is 30 days out of date.

Length 20 m.

Type: Pleasure craft. MMSI: 319070800.

Date/timePositionNaut miles runAvg speedWind from/ knotsBaromVisibWave heightAir tempDewpointWater temp
2017-Dec-22 17:38N 25°40' W 080°06'323.4
2017-Dec-22 17:30N 25°43' W 080°06'1122.3
2017-Dec-22 17:00N 25°54' W 080°04'1121.8
2017-Dec-22 16:30N 26°05' W 080°03'3721.0
2017-Dec-22 14:45N 26°41' W 079°59'520.5
2017-Dec-22 14:30N 26°46' W 080°00'  
2017-Dec-18 22:46N 34°43' W 076°40'0 0.0
2017-Dec-18 22:28N 34°43' W 076°40'0 0.0
2017-Dec-18 21:58N 34°43' W 076°40'0 0.0
2017-Dec-18 21:28N 34°43' W 076°40'0 0.0
2017-Dec-18 20:58N 34°43' W 076°40'0 0.0
2017-Dec-18 20:28N 34°43' W 076°40'0 0.0
2017-Dec-18 19:58N 34°43' W 076°40'0 0.0
2017-Dec-18 19:28N 34°43' W 076°40'1 1.7
2017-Dec-18 19:00N 34°43' W 076°41'3 7.0
2017-Dec-18 18:30N 34°46' W 076°41'119 4.2
2017-Dec-17 14:13N 36°44' W 076°16'2 6.8
2017-Dec-17 13:54N 36°46' W 076°18'2 5.9
2017-Dec-17 13:30N 36°48' W 076°18'  

Dump ship's entire track history